Current Weather

Westchester County

White Plains, New York (KHPN)

Report from: Friday, February 23, 2024 12:56 PM EST
Current time: Friday, February 23, 2024 1:56 PM EST

Nearby weather – Weather history – Daily summaries
Weather forecast

Temperature6.7°C (44.1°F)
Wind chill4.5°C (40.1°F)
Dew point3.9°C (39.0°F)
Winds 6 kts (3.1 m/s, 6.9 mph) North (350°)
Visibility8 mi. (12.9 km)
Clouds Ceiling: Broken clouds 900 ft. (274 m)
Broken clouds 3,800 ft. (1,158 m)
Altimeter29.46 in.Hg (998 mB)
Precip last 3 hoursTrace
Relative humidity82 %
Density altitude-366 ft. (-112 m)
Sea-level pressure99.8 kPa (998 mB, 29.48 in.Hg)
Max temp last 6 hours6.7°C (44.1°F)
Min temp last 6 hours3.3°C (37.9°F)
Remarks Automated weather observing station with precipitation discriminator
Pressure falling more quickly
Flight conditions Instrument Meteorological Conditions
Raw dataKHPN 231756Z 35006KT 8SM BKN009 BKN038 07/04 A2946 RMK AO2 SLP982 60000 T00670039 10067 20033 58014
An error has occurred. This application may no longer respond until reloaded. Reload 🗙